createdAt,value
2018-04-27T00:00:20.809Z,79.70
2018-04-27T00:02:49.929Z,80.00
2018-04-27T00:05:18.067Z,80.00
2018-04-27T00:07:46.248Z,79.90
2018-04-27T00:10:14.415Z,80.50
2018-04-27T00:12:43.444Z,80.20
2018-04-27T00:15:11.592Z,80.40
2018-04-27T00:17:39.775Z,81.20
2018-04-27T00:20:07.927Z,81.50
2018-04-27T00:22:36.173Z,80.90
2018-04-27T00:25:05.087Z,80.50
2018-04-27T00:27:33.254Z,80.50
2018-04-27T00:30:02.167Z,81.20
2018-04-27T00:32:30.400Z,81.20
2018-04-27T00:34:58.578Z,82.10
2018-04-27T00:37:26.735Z,81.90
2018-04-27T00:39:54.895Z,82.80
2018-04-27T00:42:23.183Z,81.10
2018-04-27T00:44:51.449Z,81.80
2018-04-27T00:47:19.603Z,80.20
2018-04-27T00:49:47.805Z,80.20
2018-04-27T00:52:15.956Z,80.40
2018-04-27T00:54:44.124Z,80.70
2018-04-27T00:57:12.267Z,79.90
2018-04-27T00:59:41.199Z,79.90
2018-04-27T01:02:09.387Z,79.90
2018-04-27T01:04:37.659Z,80.60
2018-04-27T01:07:05.807Z,80.70
2018-04-27T01:09:33.983Z,80.80
2018-04-27T01:12:02.126Z,80.50
2018-04-27T01:14:31.079Z,80.90
2018-04-27T01:16:59.227Z,80.80
2018-04-27T01:19:27.424Z,81.20
2018-04-27T01:21:55.598Z,80.60
2018-04-27T01:24:23.876Z,80.50
2018-04-27T01:26:52.164Z,81.60
2018-04-27T01:29:20.332Z,81.20
2018-04-27T01:31:49.376Z,81.10
2018-04-27T01:34:17.548Z,80.40
2018-04-27T01:36:46.485Z,81.00
2018-04-27T01:39:14.754Z,81.10
2018-04-27T01:41:42.943Z,81.00
2018-04-27T01:44:11.115Z,80.50
2018-04-27T01:46:39.286Z,81.10
2018-04-27T01:49:07.464Z,81.60
2018-04-27T01:51:35.651Z,81.70
2018-04-27T01:54:03.802Z,81.70
2018-04-27T01:56:31.967Z,82.30
2018-04-27T01:59:00.112Z,81.20
2018-04-27T02:01:28.434Z,81.50
2018-04-27T02:03:56.567Z,83.00
2018-04-27T02:06:24.775Z,81.60
2018-04-27T02:08:52.959Z,81.40
2018-04-27T02:11:21.263Z,81.10
2018-04-27T02:13:49.499Z,82.60
2018-04-27T02:16:17.671Z,81.80
2018-04-27T02:18:45.807Z,81.70
2018-04-27T02:21:14.134Z,82.30
2018-04-27T02:23:42.308Z,82.50
2018-04-27T02:26:10.471Z,81.70
2018-04-27T02:28:38.646Z,81.80
2018-04-27T02:31:06.960Z,82.50
2018-04-27T02:33:35.116Z,82.70
2018-04-27T02:36:03.279Z,83.80
2018-04-27T02:38:31.433Z,81.60
2018-04-27T02:40:59.724Z,80.70
2018-04-27T02:43:27.867Z,80.70
2018-04-27T02:45:56.071Z,80.70
2018-04-27T02:48:24.217Z,81.10
2018-04-27T02:50:52.529Z,81.70
2018-04-27T02:53:20.675Z,82.00
2018-04-27T02:55:48.843Z,82.40
2018-04-27T02:58:17.003Z,83.40
2018-04-27T03:00:45.183Z,83.30
2018-04-27T03:03:13.404Z,81.50
2018-04-27T03:05:41.577Z,80.90
2018-04-27T03:08:09.722Z,81.10
2018-04-27T03:10:38.021Z,81.30
2018-04-27T03:13:06.174Z,81.50
2018-04-27T03:15:34.367Z,81.70
2018-04-27T03:18:02.510Z,82.20
2018-04-27T03:20:31.543Z,83.00
2018-04-27T03:22:59.710Z,82.90
2018-04-27T03:25:27.855Z,81.70
2018-04-27T03:27:56.065Z,81.40
2018-04-27T03:30:25.006Z,82.90
2018-04-27T03:32:53.931Z,83.20
2018-04-27T03:35:22.087Z,83.20
2018-04-27T03:37:50.267Z,81.10
2018-04-27T03:40:18.475Z,81.30
2018-04-27T03:42:46.652Z,81.90
2018-04-27T03:45:14.792Z,80.90
2018-04-27T03:47:42.962Z,81.50
2018-04-27T03:50:11.948Z,81.30
2018-04-27T03:52:40.130Z,81.30
2018-04-27T03:55:08.283Z,82.20
2018-04-27T03:57:37.239Z,81.60
2018-04-27T04:00:17.295Z,81.60
2018-04-27T04:02:57.303Z,82.20
2018-04-27T04:05:32.335Z,82.60
2018-04-27T04:08:00.511Z,82.40
2018-04-27T04:10:28.818Z,82.60
2018-04-27T04:12:57.091Z,83.20
2018-04-27T04:15:25.259Z,82.40
2018-04-27T04:17:53.424Z,81.30
2018-04-27T04:20:21.706Z,81.90
2018-04-27T04:22:49.882Z,83.50
2018-04-27T04:25:18.035Z,82.90
2018-04-27T04:27:46.203Z,82.90
2018-04-27T04:30:14.516Z,83.80
2018-04-27T04:32:42.683Z,84.10
2018-04-27T04:35:10.867Z,82.90
2018-04-27T04:37:39.135Z,83.20
2018-04-27T04:40:07.321Z,83.20
2018-04-27T04:42:35.592Z,84.50
2018-04-27T04:45:03.810Z,83.50
2018-04-27T04:47:31.919Z,83.40
2018-04-27T04:50:00.123Z,83.40
2018-04-27T04:52:28.368Z,84.30
2018-04-27T04:54:57.250Z,84.30
2018-04-27T04:57:25.428Z,84.30
2018-04-27T04:59:53.634Z,84.10
2018-04-27T05:02:21.908Z,84.40
2018-04-27T05:04:50.052Z,84.10
2018-04-27T05:07:18.227Z,84.80
2018-04-27T05:09:46.422Z,84.70
2018-04-27T05:12:14.586Z,84.30
2018-04-27T05:14:42.731Z,84.90
2018-04-27T05:17:10.975Z,84.70
2018-04-27T05:19:40.000Z,85.50
2018-04-27T05:22:08.219Z,84.40
2018-04-27T05:24:36.400Z,83.80
2018-04-27T05:27:04.576Z,83.60
2018-04-27T05:29:33.568Z,86.00
2018-04-27T05:32:01.743Z,85.30
2018-04-27T05:34:30.025Z,84.70
2018-04-27T05:36:58.171Z,84.50
2018-04-27T05:39:26.369Z,84.30
2018-04-27T05:41:54.512Z,84.10
2018-04-27T05:44:22.712Z,83.40
2018-04-27T05:46:50.860Z,83.30
2018-04-27T05:49:19.060Z,83.20
2018-04-27T05:51:47.214Z,83.10
2018-04-27T05:54:15.391Z,83.00
2018-04-27T05:56:43.544Z,82.40
2018-04-27T05:59:11.787Z,82.00
2018-04-27T06:01:39.934Z,83.20
2018-04-27T06:04:12.878Z,82.00
2018-04-27T06:06:41.027Z,81.90
2018-04-27T06:09:09.424Z,80.40
2018-04-27T06:11:37.552Z,77.80
2018-04-27T06:14:05.724Z,75.90
2018-04-27T06:16:33.872Z,74.70
2018-04-27T06:19:02.168Z,74.00
2018-04-27T06:21:30.315Z,73.20
2018-04-27T06:23:58.491Z,73.70
2018-04-27T06:26:26.955Z,74.00
2018-04-27T06:28:55.292Z,73.60
2018-04-27T06:31:23.549Z,73.90
2018-04-27T06:33:51.724Z,73.20
2018-04-27T06:36:19.890Z,72.50
2018-04-27T06:38:48.109Z,71.00
2018-04-27T06:41:17.028Z,68.20
2018-04-27T06:43:45.194Z,68.10
2018-04-27T06:46:13.407Z,67.60
2018-04-27T06:48:41.691Z,67.60
2018-04-27T06:51:09.843Z,68.00
2018-04-27T06:53:38.143Z,66.40
2018-04-27T06:56:06.292Z,68.30
2018-04-27T06:58:34.682Z,67.70
2018-04-27T07:01:02.839Z,67.90
2018-04-27T07:03:31.049Z,63.70
2018-04-27T07:05:59.202Z,64.30
2018-04-27T07:08:27.423Z,61.90
2018-04-27T07:10:55.599Z,64.30
2018-04-27T07:13:24.548Z,62.80
2018-04-27T07:15:52.740Z,62.70
2018-04-27T07:18:21.727Z,60.50
2018-04-27T07:20:49.906Z,60.50
2018-04-27T07:23:18.071Z,60.20
2018-04-27T07:25:46.252Z,61.80
2018-04-27T07:28:15.244Z,61.80
2018-04-27T07:30:43.522Z,62.30
2018-04-27T07:33:11.666Z,61.30
2018-04-27T07:35:39.872Z,60.00
2018-04-27T07:38:08.958Z,59.10
2018-04-27T07:40:37.236Z,59.60
2018-04-27T07:43:05.407Z,60.40
2018-04-27T07:45:33.587Z,60.00
2018-04-27T07:48:02.544Z,58.80
2018-04-27T07:50:30.761Z,58.70
2018-04-27T07:52:59.023Z,59.60
2018-04-27T07:55:27.304Z,58.60
2018-04-27T07:57:55.480Z,58.00
2018-04-27T08:00:23.661Z,59.00
2018-04-27T08:02:51.807Z,58.20
2018-04-27T08:05:19.979Z,57.70
2018-04-27T08:07:48.962Z,57.50
2018-04-27T08:10:17.147Z,57.50
2018-04-27T08:12:45.341Z,59.00
2018-04-27T08:15:13.511Z,58.30
2018-04-27T08:17:42.506Z,58.30
2018-04-27T08:20:10.679Z,58.30
2018-04-27T08:22:38.841Z,55.80
2018-04-27T08:25:07.010Z,57.80
2018-04-27T08:27:36.027Z,56.50
2018-04-27T08:30:04.235Z,56.50
2018-04-27T08:32:33.155Z,55.00
2018-04-27T08:35:01.342Z,54.90
2018-04-27T08:37:29.541Z,57.00
2018-04-27T08:39:57.843Z,57.80
2018-04-27T08:42:25.987Z,58.20
2018-04-27T08:44:54.172Z,55.80
2018-04-27T08:47:22.320Z,56.30
2018-04-27T08:49:50.501Z,56.10
2018-04-27T08:52:18.687Z,56.10
2018-04-27T08:54:46.963Z,57.60
2018-04-27T08:57:16.061Z,55.90
2018-04-27T08:59:44.243Z,55.90
2018-04-27T09:02:12.507Z,55.00
2018-04-27T09:04:40.687Z,55.00
2018-04-27T09:07:10.323Z,54.30
2018-04-27T09:09:38.575Z,54.30
2018-04-27T09:12:06.738Z,54.20
2018-04-27T09:14:34.900Z,54.90
2018-04-27T09:17:03.231Z,54.70
2018-04-27T09:19:32.153Z,52.00
2018-04-27T09:22:00.326Z,51.90
2018-04-27T09:24:28.479Z,55.50
2018-04-27T09:26:58.322Z,53.40
2018-04-27T09:29:26.407Z,53.40
2018-04-27T09:31:54.591Z,54.00
2018-04-27T09:34:22.744Z,54.50
2018-04-27T09:36:50.938Z,52.10
2018-04-27T09:39:19.102Z,52.70
2018-04-27T09:41:47.276Z,52.80
2018-04-27T09:44:15.462Z,51.10
2018-04-27T09:46:44.511Z,51.80
2018-04-27T09:49:12.663Z,51.70
2018-04-27T09:51:41.627Z,50.60
2018-04-27T09:54:09.803Z,50.60
2018-04-27T09:56:38.899Z,51.70
2018-04-27T09:59:07.074Z,51.70
2018-04-27T10:01:35.247Z,50.20
2018-04-27T10:04:03.522Z,50.30
2018-04-27T10:06:32.491Z,52.50
2018-04-27T10:09:00.655Z,52.50
2018-04-27T10:11:28.839Z,50.60
2018-04-27T10:13:56.997Z,50.40
2018-04-27T10:16:25.315Z,50.50
2018-04-27T10:18:53.479Z,50.30
2018-04-27T10:21:21.655Z,48.20
2018-04-27T10:23:49.807Z,49.40
2018-04-27T10:26:21.653Z,50.60
2018-04-27T10:28:49.871Z,50.60
2018-04-27T10:31:18.048Z,49.10
2018-04-27T10:33:46.315Z,48.80
2018-04-27T10:36:15.390Z,47.80
2018-04-27T10:38:43.554Z,47.80
2018-04-27T10:41:11.738Z,47.90
2018-04-27T10:43:39.898Z,48.40
2018-04-27T10:46:08.903Z,49.40
2018-04-27T10:48:37.075Z,49.40
2018-04-27T10:51:05.266Z,46.90
2018-04-27T10:53:33.426Z,49.20
2018-04-27T10:56:02.448Z,48.30
2018-04-27T10:58:30.586Z,48.30
2018-04-27T11:00:58.776Z,48.50
2018-04-27T11:03:26.995Z,48.20
2018-04-27T11:05:56.057Z,47.30
2018-04-27T11:08:24.211Z,47.30
2018-04-27T11:10:52.424Z,46.60
2018-04-27T11:13:20.572Z,46.80
2018-04-27T11:15:49.882Z,47.60
2018-04-27T11:18:18.064Z,47.60
2018-04-27T11:20:46.239Z,46.20
2018-04-27T11:23:14.505Z,45.70
2018-04-27T11:25:43.474Z,46.20
2018-04-27T11:28:11.646Z,46.10
2018-04-27T11:30:39.855Z,46.80
2018-04-27T11:33:08.038Z,46.70
2018-04-27T11:35:37.331Z,44.60
2018-04-27T11:38:05.507Z,44.00
2018-04-27T11:40:33.662Z,46.10
2018-04-27T11:43:01.849Z,45.40
2018-04-27T11:45:30.803Z,46.20
2018-04-27T11:47:58.975Z,45.70
2018-04-27T11:50:27.128Z,46.10
2018-04-27T11:52:56.088Z,43.50
2018-04-27T11:55:24.364Z,43.50
2018-04-27T11:57:52.538Z,43.80
2018-04-27T12:00:21.622Z,46.60
2018-04-27T12:02:49.809Z,43.50
2018-04-27T12:05:17.979Z,43.40
2018-04-27T12:07:46.294Z,42.30
2018-04-27T12:10:14.456Z,43.60
2018-04-27T12:12:43.399Z,43.80
2018-04-27T12:15:11.700Z,43.80
2018-04-27T12:17:40.005Z,44.10
2018-04-27T12:20:08.131Z,41.60
2018-04-27T12:22:36.403Z,43.30
2018-04-27T12:25:04.579Z,41.60
2018-04-27T12:27:33.280Z,41.60
2018-04-27T12:30:01.441Z,41.00
2018-04-27T12:32:29.620Z,38.70
2018-04-27T12:34:57.787Z,40.60
2018-04-27T12:37:26.069Z,39.20
2018-04-27T12:39:54.268Z,41.70
2018-04-27T12:42:22.440Z,39.20
2018-04-27T12:44:51.521Z,40.70
2018-04-27T12:47:19.792Z,40.70
2018-04-27T12:49:48.068Z,40.60
2018-04-27T12:52:16.306Z,41.20
2018-04-27T12:54:44.499Z,39.40
2018-04-27T12:57:12.695Z,41.10
2018-04-27T12:59:40.847Z,40.80
2018-04-27T13:02:09.035Z,38.40
2018-04-27T13:04:37.258Z,38.20
2018-04-27T13:07:05.455Z,36.70
2018-04-27T13:09:33.614Z,39.00
2018-04-27T13:12:01.811Z,37.60
2018-04-27T13:14:30.827Z,36.10
2018-04-27T13:16:59.036Z,36.10
2018-04-27T13:19:27.971Z,36.40
2018-04-27T13:21:56.176Z,36.30
2018-04-27T13:24:24.448Z,33.70
2018-04-27T13:26:52.616Z,34.30
2018-04-27T13:29:20.813Z,35.00
2018-04-27T13:31:49.792Z,35.20
2018-04-27T13:34:18.772Z,35.60
2018-04-27T13:36:46.961Z,35.50
2018-04-27T13:39:15.149Z,33.80
2018-04-27T13:41:44.103Z,34.30
2018-04-27T13:44:13.220Z,35.00
2018-04-27T13:46:41.391Z,35.00
2018-04-27T13:49:09.574Z,36.30
2018-04-27T13:51:37.729Z,34.70
2018-04-27T13:54:05.991Z,34.40
2018-04-27T13:56:34.166Z,33.80
2018-04-27T13:59:02.354Z,35.40
2018-04-27T14:01:30.530Z,34.10
2018-04-27T14:03:59.758Z,35.80
2018-04-27T14:06:28.694Z,36.50
2018-04-27T14:08:56.892Z,36.50
2018-04-27T14:11:25.063Z,32.60
2018-04-27T14:13:54.187Z,34.20
2018-04-27T14:16:23.325Z,34.20
2018-04-27T14:18:51.448Z,35.10
2018-04-27T14:21:19.714Z,35.50
2018-04-27T14:23:48.828Z,32.50
2018-04-27T14:26:16.994Z,32.50
2018-04-27T14:28:45.262Z,34.30
2018-04-27T14:31:13.428Z,34.90
2018-04-27T14:33:43.172Z,35.80
2018-04-27T14:36:11.423Z,33.70
2018-04-27T14:38:39.704Z,33.90
2018-04-27T14:41:07.898Z,34.20
2018-04-27T14:43:37.074Z,35.80
2018-04-27T14:46:05.239Z,35.70
2018-04-27T14:48:33.525Z,34.10
2018-04-27T14:51:01.683Z,31.70
2018-04-27T14:53:31.403Z,34.80
2018-04-27T14:55:59.572Z,34.80
2018-04-27T14:58:27.763Z,34.50
2018-04-27T15:00:55.935Z,33.70
2018-04-27T15:03:24.165Z,32.70
2018-04-27T15:05:52.356Z,32.60
2018-04-27T15:08:20.524Z,33.80
2018-04-27T15:10:48.696Z,37.00
2018-04-27T15:13:17.735Z,35.90
2018-04-27T15:15:45.897Z,36.00
2018-04-27T15:18:14.104Z,33.90
2018-04-27T15:20:42.639Z,34.00
2018-04-27T15:23:10.867Z,32.80
2018-04-27T15:25:39.924Z,35.60
2018-04-27T15:28:08.082Z,35.60
2018-04-27T15:30:36.279Z,34.10
2018-04-27T15:33:04.590Z,34.90
2018-04-27T15:35:32.779Z,34.10
2018-04-27T15:38:00.995Z,34.10
2018-04-27T15:40:29.208Z,32.80
2018-04-27T15:42:58.161Z,35.10
2018-04-27T15:45:26.339Z,35.10
2018-04-27T15:47:54.513Z,34.40
2018-04-27T15:50:22.784Z,33.90
2018-04-27T15:52:51.779Z,34.50
2018-04-27T15:55:19.963Z,34.50
2018-04-27T15:57:48.123Z,34.20
2018-04-27T16:00:16.303Z,34.10
2018-04-27T16:02:44.471Z,38.50
2018-04-27T16:05:12.655Z,37.50
2018-04-27T16:07:40.932Z,33.90
2018-04-27T16:10:09.124Z,35.90
2018-04-27T16:12:37.286Z,32.80
2018-04-27T16:15:05.549Z,35.20
2018-04-27T16:17:33.769Z,34.50
2018-04-27T16:20:01.882Z,34.60
2018-04-27T16:22:30.064Z,35.00
2018-04-27T16:24:58.231Z,34.20
2018-04-27T16:27:26.387Z,35.80
2018-04-27T16:29:54.567Z,36.60
2018-04-27T16:32:23.636Z,35.40
2018-04-27T16:34:52.572Z,36.50
2018-04-27T16:37:20.732Z,36.50
2018-04-27T16:39:48.911Z,36.00
2018-04-27T16:42:17.211Z,35.80
2018-04-27T16:44:45.399Z,35.50
2018-04-27T16:47:13.559Z,36.10
2018-04-27T16:49:41.757Z,36.50
2018-04-27T16:52:10.686Z,36.20
2018-04-27T16:54:38.896Z,36.10
2018-04-27T16:57:07.073Z,35.80
2018-04-27T16:59:35.247Z,37.60
2018-04-27T17:02:04.198Z,37.70
2018-04-27T17:04:32.378Z,37.60
2018-04-27T17:07:00.536Z,38.10
2018-04-27T17:09:28.781Z,38.00
2018-04-27T17:11:57.083Z,37.80
2018-04-27T17:14:26.012Z,38.60
2018-04-27T17:16:54.191Z,38.60
2018-04-27T17:19:22.349Z,38.10
2018-04-27T17:21:51.358Z,39.70
2018-04-27T17:24:19.551Z,39.70
2018-04-27T17:26:47.729Z,39.90
2018-04-27T17:29:15.996Z,40.20
2018-04-27T17:31:45.087Z,40.10
2018-04-27T17:34:13.274Z,40.10
2018-04-27T17:36:41.461Z,40.50
2018-04-27T17:39:09.724Z,40.60
2018-04-27T17:41:38.065Z,41.30
2018-04-27T17:44:06.272Z,42.00
2018-04-27T17:46:34.451Z,42.10
2018-04-27T17:49:02.724Z,42.60
2018-04-27T17:51:31.703Z,43.70
2018-04-27T17:53:59.996Z,43.60
2018-04-27T17:56:28.275Z,43.90
2018-04-27T17:58:56.450Z,44.20
2018-04-27T18:01:25.631Z,43.90
2018-04-27T18:03:53.807Z,43.90
2018-04-27T18:06:22.015Z,43.60
2018-04-27T18:08:50.182Z,43.70
2018-04-27T18:11:19.138Z,44.30
2018-04-27T18:13:47.301Z,44.30
2018-04-27T18:16:15.499Z,43.80
2018-04-27T18:18:43.670Z,44.60
2018-04-27T18:21:11.915Z,45.10
2018-04-27T18:23:40.088Z,44.30
2018-04-27T18:26:08.299Z,44.00
2018-04-27T18:28:36.472Z,44.20
2018-04-27T18:31:05.587Z,44.10
2018-04-27T18:33:35.258Z,44.10
2018-04-27T18:36:03.455Z,44.10
2018-04-27T18:38:31.627Z,44.10
2018-04-27T18:40:59.891Z,42.90
2018-04-27T18:43:28.079Z,43.70
2018-04-27T18:45:56.283Z,42.50
2018-04-27T18:48:25.243Z,44.00
2018-04-27T18:50:54.414Z,44.00
2018-04-27T18:53:22.623Z,43.40
2018-04-27T18:55:50.827Z,43.60
2018-04-27T18:58:18.999Z,44.50
2018-04-27T19:00:47.210Z,46.50
2018-04-27T19:03:16.224Z,48.40
2018-04-27T19:05:44.408Z,50.00
2018-04-27T19:08:12.687Z,50.60
2018-04-27T19:10:41.257Z,51.10
2018-04-27T19:13:09.548Z,52.10
2018-04-27T19:15:38.535Z,54.10
2018-04-27T19:18:07.518Z,53.70
2018-04-27T19:20:35.694Z,54.00
2018-04-27T19:23:07.772Z,53.80
2018-04-27T19:25:49.107Z,55.30
2018-04-27T19:28:17.427Z,55.30
2018-04-27T19:30:45.620Z,56.00
2018-04-27T19:33:14.587Z,56.70
2018-04-27T19:35:42.771Z,56.60
2018-04-27T19:38:11.051Z,57.70
2018-04-27T19:40:39.263Z,58.70
2018-04-27T19:43:07.462Z,58.60
2018-04-27T19:45:35.639Z,59.50
2018-04-27T19:48:03.836Z,59.50
2018-04-27T19:50:32.066Z,59.30
2018-04-27T19:53:00.267Z,58.60
2018-04-27T19:55:28.443Z,58.60
2018-04-27T19:57:56.695Z,59.40
2018-04-27T20:00:28.915Z,58.60
2018-04-27T20:02:57.502Z,60.10
2018-04-27T20:05:26.699Z,60.80
2018-04-27T20:07:55.675Z,60.80
2018-04-27T20:10:24.751Z,61.40
2018-04-27T20:12:52.954Z,61.40
2018-04-27T20:15:33.099Z,61.30
2018-04-27T20:18:01.299Z,61.10
2018-04-27T20:20:29.668Z,62.00
2018-04-27T20:23:02.101Z,62.50
2018-04-27T20:25:30.272Z,62.40
2018-04-27T20:27:58.462Z,62.80
2018-04-27T20:30:26.714Z,62.50
2018-04-27T20:32:54.944Z,61.80
2018-04-27T20:35:23.098Z,61.40
2018-04-27T20:37:52.031Z,60.90
2018-04-27T20:40:23.996Z,63.10
2018-04-27T20:42:52.177Z,63.10
2018-04-27T20:45:23.931Z,63.40
2018-04-27T20:47:52.907Z,64.90
2018-04-27T20:50:25.831Z,66.30
2018-04-27T20:52:54.935Z,65.90
2018-04-27T20:55:23.083Z,67.10
2018-04-27T20:57:52.046Z,68.70
2018-04-27T21:00:29.541Z,68.50
2018-04-27T21:02:57.725Z,67.50
2018-04-27T21:05:25.879Z,68.00
2018-04-27T21:07:54.064Z,68.20
2018-04-27T21:10:23.027Z,67.00
2018-04-27T21:12:51.195Z,67.00
2018-04-27T21:15:20.079Z,67.90
2018-04-27T21:17:49.083Z,68.30
2018-04-27T21:20:18.858Z,68.40
2018-04-27T21:22:47.033Z,68.00
2018-04-27T21:25:15.951Z,68.80
2018-04-27T21:27:44.975Z,68.80
2018-04-27T21:30:13.368Z,70.10
2018-04-27T21:32:41.525Z,70.10
2018-04-27T21:35:09.712Z,71.90
2018-04-27T21:37:38.675Z,72.10
2018-04-27T21:40:07.671Z,71.30
2018-04-27T21:42:35.819Z,71.30
2018-04-27T21:45:03.991Z,70.80
2018-04-27T21:47:32.143Z,72.70
2018-04-27T21:50:02.019Z,71.30
2018-04-27T21:52:33.685Z,71.70
2018-04-27T21:55:01.869Z,70.80
2018-04-27T21:57:32.806Z,71.60
2018-04-27T22:00:00.984Z,71.60
2018-04-27T22:02:34.807Z,72.20
2018-04-27T22:08:14.364Z,72.50
2018-04-27T22:10:44.698Z,72.50
2018-04-27T22:13:17.543Z,72.90
2018-04-27T22:15:45.701Z,72.90
2018-04-27T22:18:13.896Z,72.60
2018-04-27T22:20:48.903Z,73.80
2018-04-27T22:26:14.615Z,74.20
2018-04-27T22:28:43.812Z,74.00
2018-04-27T22:31:12.827Z,74.40
2018-04-27T22:33:45.599Z,73.90
2018-04-27T22:36:22.471Z,73.90
2018-04-27T22:41:57.335Z,75.40
2018-04-27T22:44:34.118Z,76.50
2018-04-27T22:47:02.320Z,75.60
2018-04-27T22:49:30.493Z,75.40
2018-04-27T22:51:58.644Z,75.00
2018-04-27T22:54:31.847Z,75.60
2018-04-27T22:57:15.626Z,77.10
2018-04-27T23:02:38.263Z,76.40
2018-04-27T23:05:11.111Z,76.70
2018-04-27T23:07:41.118Z,77.00
2018-04-27T23:10:09.336Z,76.70
2018-04-27T23:15:41.663Z,75.90
2018-04-27T23:18:13.639Z,76.70
2018-04-27T23:20:42.583Z,78.10
2018-04-27T23:23:10.873Z,78.00
2018-04-27T23:25:39.043Z,79.00
2018-04-27T23:28:07.204Z,78.60
2018-04-27T23:30:37.083Z,76.70
2018-04-27T23:33:05.398Z,77.70
2018-04-27T23:35:33.570Z,78.00
2018-04-27T23:38:03.654Z,77.50
2018-04-27T23:40:31.835Z,77.50
2018-04-27T23:43:00.028Z,77.80
2018-04-27T23:45:28.203Z,77.50
2018-04-27T23:47:58.314Z,76.80
2018-04-27T23:50:26.478Z,77.00
2018-04-27T23:52:54.699Z,77.10
2018-04-27T23:55:22.868Z,77.20
2018-04-27T23:57:51.023Z,77.00
